ADDS METAR Data INFO
IDs: Format: Raw Decoded Include TAF

Data at: 2306 UTC 16 Jan 2018

KDVL 162256Z AUTO 21012KT 10SM CLR M14/M20 A3038 RMK AO2 SLP352 T11441200 FZRANO
KDVL 162156Z AUTO 20012KT 10SM FEW120 M14/M20 A3041 RMK AO2 SLP364 T11391200 FZRANO
KDVL 162056Z AUTO 20012KT 10SM OVC110 M13/M19 A3043 RMK AO2 SLP370 T11281194 56032 FZRANO
KDVL 161956Z AUTO 20009KT 10SM CLR M14/M21 A3047 RMK AO2 SLP381 T11391206 FZRANO
KDVL 161856Z AUTO 21013KT 10SM CLR M16/M22 A3050 RMK AO2 SLP396 T11611217 FZRANO
KDVL 161756Z AUTO 22011KT 10SM FEW120 M18/M23 A3053 RMK AO2 SLP408 60000 T11831233 11183 21272 56029 FZRANO
KDVL 161656Z AUTO 22013KT 10SM CLR M20/M24 A3057 RMK AO2 SLP424 T12001244 FZRANO
KDVL 161556Z AUTO 21010KT 10SM CLR M23/M27 A3058 RMK AO2 SLP428 T12281267 FZRANO
KDVL 161456Z AUTO 23005KT 10SM CLR M24/M28 A3062 RMK AO2 SNB39E49 SLP444 P0000 60000 T12441278 55014 FZRANO
KDVL 161454Z AUTO 23005KT 9SM CLR M24/M28 A3062 RMK AO2 SNB39E49 P0000 FZRANO
KDVL 161446Z AUTO 23007KT 1SM -SN CLR M24/M28 A3062 RMK AO2 SNB39 P0000 FZRANO
KDVL 161356Z AUTO 23006KT 10SM CLR M26/M29 A3065 RMK AO2 SLP454 T12611289 FZRANO
KDVL 161256Z AUTO 23007KT 10SM CLR M27/M29 A3066 RMK AO2 SLP460 T12671294 FZRANO
KDVL 161156Z AUTO 21006KT 10SM CLR M27/M29 A3069 RMK AO2 SLP467 60000 T12671294 11261 21289 58021 FZRANO
KDVL 161056Z AUTO 21006KT 10SM CLR M26/M29 A3072 RMK AO2 SNE00 SLP477 P0000 T12611289 FZRANO
KDVL 161049Z AUTO 22006KT 10SM CLR M26/M29 A3072 RMK AO2 SNE00 P0000 FZRANO
KDVL 161041Z AUTO 22005KT 1 3/4SM HZ FEW001 M26/M29 A3073 RMK AO2 SNE00 P0000 FZRANO
KDVL 161034Z AUTO 21004KT 1 3/4SM HZ CLR M27/M29 A3073 RMK AO2 SNE00 P0000 FZRANO
KDVL 161003Z AUTO 25005KT 9SM FEW001 M28/M31 A3075 RMK AO2 SNE00 P0000 FZRANO
KDVL 160956Z AUTO 26006KT 1SM -SN VV001 M28/M31 A3075 RMK AO2 SNB50 SLP489 P0000 T12781306 FZRANO
KDVL 160954Z AUTO 26005KT 3/4SM -SN VV001 M28/M31 A3075 RMK AO2 SNB50 P0000 FZRANO
KDVL 160856Z AUTO 26004KT 10SM CLR M28/M31 A3076 RMK AO2 SLP493 T12831311 58016 FZRANO
KDVL 160756Z AUTO 23003KT 10SM CLR M27/M30 A3078 RMK AO2 SLP498 T12671300 FZRANO TSNO
KDVL 160656Z AUTO 31003KT 10SM CLR M28/M31 A3080 RMK AO2 SLP508 T12831311 FZRANO
KDVL 160556Z AUTO 24004KT 10SM CLR M27/M30 A3081 RMK AO2 SLP511 T12721300 11244 21283 58001 FZRANO
KDVL 160456Z AUTO 28006KT 10SM CLR M28/M31 A3081 RMK AO2 SLP512 T12781306 412221278 FZRANO
KDVL 160356Z AUTO 27006KT 10SM CLR M27/M30 A3082 RMK AO2 SLP514 T12721300 FZRANO
KDVL 160256Z AUTO 31007KT 10SM CLR M26/M29 A3081 RMK AO2 SLP512 T12611294 58000 FZRANO
KDVL 160156Z AUTO 32011KT 10SM CLR M26/M29 A3082 RMK AO2 SLP512 T12561289 FZRANO
KDVL 160056Z AUTO 32011KT 10SM CLR M25/M28 A3082 RMK AO2 SLP511 T12501283 FZRANO
KDVL 152356Z AUTO 33012KT 10SM CLR M24/M28 A3081 RMK AO2 SLP509 T12441278 11228 21250 51020 FZRANO
KDVL 152256Z AUTO 34014KT 10SM CLR M23/M27 A3081 RMK AO2 SLP506 T12331267 FZRANO
KDVL 152156Z AUTO 34015KT 9SM CLR M23/M26 A3078 RMK AO2 SLP496 T12281261 FZRANO
KDVL 152056Z AUTO 34016G24KT 4SM HZ CLR M23/M27 A3075 RMK AO2 SLP488 T12331267 55003 FZRANO
KDVL 151956Z AUTO 34018KT 8SM CLR M24/M27 A3075 RMK AO2 SLP485 T12391272 FZRANO TSNO
KDVL 151856Z AUTO 35017KT 6SM HZ FEW008 M24/M28 A3075 RMK AO2 SLP486 T12441278 FZRANO
KDVL 151835Z AUTO 35018KT 8SM SCT008 M24/M28 A3076 RMK AO2 FZRANO
KDVL 151810Z AUTO 36017KT 6SM HZ BKN008 OVC019 M25/M28 A3076 RMK AO2 FZRANO
KDVL 151756Z AUTO 35017KT 6SM HZ SCT008 OVC019 M26/M28 A3076 RMK AO2 SLP490 60000 T12561283 11256 21267 51012 FZRANO
KDVL 151656Z AUTO 34018KT 3SM HZ BKN006 M26/M29 A3076 RMK AO2 PK WND 35026/1602 SLP489 T12611294 FZRANO
KDVL 151649Z AUTO 35020KT 1 3/4SM HZ BKN006 M26/M29 A3075 RMK AO2 PK WND 35026/1602 VIS 1 1/4V3 FZRANO
KDVL 151627Z AUTO 35019KT 2SM HZ SCT006 M26/M29 A3074 RMK AO2 PK WND 35026/1602 VIS 1V4 FZRANO
KDVL 151556Z AUTO 35020G26KT 1 1/2SM HZ BKN006 M27/M29 A3073 RMK AO2 PK WND 34026/1553 VIS 1V4 SLP479 T12671294 FZRANO
KDVL 151542Z AUTO 35022KT 1 1/2SM HZ BKN006 M27/M29 A3073 RMK AO2 VIS 1V3 FZRANO TSNO
KDVL 151521Z AUTO 34019KT 2SM HZ OVC006 M27/M30 A3072 RMK AO2 FZRANO
KDVL 151456Z AUTO 35017KT 3SM HZ OVC006 M27/M29 A3072 RMK AO2 SNE06 SLP475 P0000 60000 T12671294 53030 FZRANO
KDVL 151434Z AUTO 34019KT 2SM HZ BKN006 OVC026 M27/M29 A3070 RMK AO2 SNE06 P0000 FZRANO
KDVL 151417Z AUTO 34021KT 1 1/4SM HZ BKN006 BKN026 M27/M29 A3069 RMK AO2 SNE06 CIG 005V009 P0000 FZRANO
KDVL 151356Z AUTO 34019KT 2 1/2SM -SN OVC006 M27/M29 A3068 RMK AO2 VIS 1 3/4V3 SNB09 SLP461 P0000 T12671294 FZRANO
KDVL 151330Z AUTO 34020KT 2 1/2SM HZ OVC008 M27/M29 A3067 RMK AO2 SNB09E23 P0000 FZRANO
KDVL 151256Z AUTO 35018G25KT 3SM HZ OVC008 M26/M29 A3066 RMK AO2 PRESRR SLP453 T12611294 FZRANO
KDVL 151225Z AUTO 35018KT 2 1/2SM HZ OVC008 M26/M29 A3064 RMK AO2 VIS 2 1/2V3 FZRANO
KDVL 151206Z AUTO 34016KT 3SM HZ OVC008 M26/M29 A3064 RMK AO2 FZRANO
KDVL 151156Z AUTO 35017G26KT 2 1/2SM HZ OVC008 M26/M29 A3063 RMK AO2 PK WND 35026/1150 SLP441 60000 T12561289 11228 21256 51027 FZRANO